Time;durP1;ratioP1;P1;durP2;ratioP2;P2;SDS_P1;SDS_P2;PMS_P1;PMS_P2;Temp;Humidity;BMP_temperature;BMP_pressure;BME280_temperature;BME280_humidity;BME280_pressure;Samples;Min_cycle;Max_cycle;Signal;HPM_P1;HPM_P2
2023/10/06 00:02:19;;;;;;;6.55;5.00;;;;;;;;;;5081734;28;20982;-78
2023/10/06 00:04:45;;;;;;;6.63;5.03;;;;;;;;;;5081422;28;20391;-78
2023/10/06 00:07:14;;;;;;;7.00;5.10;;;;;;;;;;5080469;28;20430;-78
2023/10/06 00:09:43;;;;;;;7.82;5.20;;;;;;;;;;5078028;28;20378;-79
2023/10/06 00:12:13;;;;;;;7.30;5.20;;;;;;;;;;5081863;28;20380;-78
2023/10/06 00:14:39;;;;;;;6.65;5.10;;;;;;;;;;5081451;28;20853;-79
2023/10/06 00:17:15;;;;;;;7.82;5.35;;;;;;;;;;5081435;28;20437;-79
2023/10/06 00:19:42;;;;;;;6.83;4.80;;;;;;;;;;5081539;28;20383;-79
2023/10/06 00:24:44;;;;;;;8.45;5.20;;;;;;;;;;5081308;28;20455;-78
2023/10/06 00:27:11;;;;;;;6.35;4.95;;;;;;;;;;5080748;28;20446;-79
2023/10/06 00:29:43;;;;;;;5.78;4.95;;;;;;;;;;5081921;28;20380;-78
2023/10/06 00:32:22;;;;;;;6.75;5.00;;;;;;;;;;5081647;28;20720;-79
2023/10/06 00:34:48;;;;;;;6.43;5.00;;;;;;;;;;5069014;28;20376;-78
2023/10/06 00:37:15;;;;;;;6.90;5.50;;;;;;;;;;5081115;28;20372;-79
2023/10/06 00:39:42;;;;;;;8.00;5.32;;;;;;;;;;5081146;28;21255;-79
2023/10/06 00:42:08;;;;;;;6.20;4.95;;;;;;;;;;5080932;28;20387;-79
2023/10/06 00:44:35;;;;;;;6.20;5.07;;;;;;;;;;5062892;28;20388;-79
2023/10/06 00:47:05;;;;;;;7.35;5.10;;;;;;;;;;5081279;28;20465;-78
2023/10/06 00:49:32;;;;;;;6.45;4.93;;;;;;;;;;5080909;28;20387;-79
2023/10/06 00:51:59;;;;;;;7.37;5.57;;;;;;;;;;5080992;28;20415;-79
2023/10/06 00:54:26;;;;;;;6.40;5.57;;;;;;;;;;5080950;28;20975;-78
2023/10/06 00:56:57;;;;;;;6.80;5.30;;;;;;;;;;5080694;28;20411;-79
2023/10/06 00:59:24;;;;;;;7.30;5.10;;;;;;;;;;5069513;28;20477;-78
2023/10/06 01:01:50;;;;;;;7.32;5.35;;;;;;;;;;5058811;28;20451;-78
2023/10/06 01:04:18;;;;;;;6.85;5.20;;;;;;;;;;5080414;28;20893;-79
2023/10/06 01:06:45;;;;;;;7.05;5.57;;;;;;;;;;5080689;28;20426;-78
2023/10/06 01:11:40;;;;;;;6.45;5.25;;;;;;;;;;5080865;28;20902;-79
2023/10/06 01:14:07;;;;;;;7.30;5.20;;;;;;;;;;5082090;28;20384;-79
2023/10/06 01:16:36;;;;;;;7.22;5.45;;;;;;;;;;5080019;28;20391;-78
2023/10/06 01:19:15;;;;;;;6.60;5.18;;;;;;;;;;5081006;28;20441;-79
2023/10/06 01:21:48;;;;;;;7.20;6.10;;;;;;;;;;5081323;28;20826;-78
2023/10/06 01:24:23;;;;;;;6.93;6.22;;;;;;;;;;5080603;28;20384;-78
2023/10/06 01:26:49;;;;;;;7.70;6.60;;;;;;;;;;5081194;28;20421;-79
2023/10/06 01:29:15;;;;;;;6.65;5.70;;;;;;;;;;5080576;28;20463;-78
2023/10/06 01:31:41;;;;;;;7.40;5.60;;;;;;;;;;5080659;28;20406;-79
2023/10/06 01:34:12;;;;;;;6.93;5.30;;;;;;;;;;5080725;28;20383;-79
2023/10/06 01:36:39;;;;;;;7.25;4.82;;;;;;;;;;5080585;28;20921;-79
2023/10/06 01:39:05;;;;;;;9.95;4.88;;;;;;;;;;5080276;28;20435;-78
2023/10/06 01:41:35;;;;;;;6.07;4.90;;;;;;;;;;5081161;28;20387;-79
2023/10/06 01:44:10;;;;;;;6.18;4.60;;;;;;;;;;5080670;28;20864;-79
2023/10/06 01:46:37;;;;;;;5.65;4.35;;;;;;;;;;5080661;28;20415;-79
2023/10/06 01:49:03;;;;;;;6.43;4.95;;;;;;;;;;5080735;28;20459;-79
2023/10/06 01:51:35;;;;;;;6.43;4.50;;;;;;;;;;5080454;28;20379;-79
2023/10/06 01:54:02;;;;;;;6.65;4.85;;;;;;;;;;5080329;28;20767;-79
2023/10/06 01:56:31;;;;;;;7.55;5.40;;;;;;;;;;5081031;28;20391;-79
2023/10/06 01:58:57;;;;;;;7.30;5.50;;;;;;;;;;5080198;28;20391;-79
2023/10/06 02:01:23;;;;;;;6.68;5.43;;;;;;;;;;5080683;28;20390;-78
2023/10/06 02:03:49;;;;;;;7.65;5.97;;;;;;;;;;5080283;28;20383;-79
2023/10/06 02:06:16;;;;;;;7.72;5.82;;;;;;;;;;5079239;28;20407;-79
2023/10/06 02:08:43;;;;;;;6.53;5.30;;;;;;;;;;5079629;28;20384;-78
2023/10/06 02:11:09;;;;;;;7.30;5.15;;;;;;;;;;5078784;28;20375;-79
2023/10/06 02:13:36;;;;;;;6.97;4.78;;;;;;;;;;5079174;28;20383;-78
2023/10/06 02:16:03;;;;;;;6.80;5.10;;;;;;;;;;5080402;28;20391;-79
2023/10/06 02:18:36;;;;;;;6.82;4.78;;;;;;;;;;5065832;28;20394;-78
2023/10/06 02:21:11;;;;;;;7.28;5.40;;;;;;;;;;5077184;28;20380;-79
2023/10/06 02:23:41;;;;;;;6.43;5.13;;;;;;;;;;5081148;28;21029;-79
2023/10/06 02:26:09;;;;;;;7.45;5.57;;;;;;;;;;5081777;28;20498;-78
2023/10/06 02:28:40;;;;;;;6.55;4.65;;;;;;;;;;5083079;28;20379;-78
2023/10/06 02:31:07;;;;;;;7.15;4.97;;;;;;;;;;5082878;28;20376;-79
2023/10/06 02:33:36;;;;;;;5.90;5.00;;;;;;;;;;5084355;28;20376;-79
2023/10/06 02:36:21;;;;;;;5.77;4.60;;;;;;;;;;5083749;28;20858;-79
2023/10/06 02:38:48;;;;;;;6.75;4.80;;;;;;;;;;5072213;28;20417;-79
2023/10/06 02:41:18;;;;;;;9.05;5.05;;;;;;;;;;5082925;28;20376;-79
2023/10/06 02:43:45;;;;;;;6.60;4.53;;;;;;;;;;5082934;28;20437;-79
2023/10/06 02:46:11;;;;;;;6.57;5.00;;;;;;;;;;5083093;28;20557;-79
2023/10/06 02:48:37;;;;;;;6.55;4.60;;;;;;;;;;5083630;28;20383;-79
2023/10/06 02:51:06;;;;;;;6.47;4.50;;;;;;;;;;5083276;28;20380;-78
2023/10/06 02:53:35;;;;;;;7.60;5.20;;;;;;;;;;5082183;28;20810;-79
2023/10/06 02:56:09;;;;;;;6.00;4.75;;;;;;;;;;5082492;28;20810;-79
2023/10/06 02:58:35;;;;;;;7.28;5.70;;;;;;;;;;5082284;28;20862;-79
2023/10/06 03:01:04;;;;;;;10.50;8.93;;;;;;;;;;5082461;28;20390;-79
2023/10/06 03:03:33;;;;;;;15.70;12.38;;;;;;;;;;5082092;28;20384;-79
2023/10/06 03:06:06;;;;;;;14.25;11.98;;;;;;;;;;5082488;28;20463;-79
2023/10/06 03:08:33;;;;;;;11.48;10.27;;;;;;;;;;5082554;28;20429;-79
2023/10/06 03:11:00;;;;;;;11.65;8.75;;;;;;;;;;5082313;28;20384;-79
2023/10/06 03:13:43;;;;;;;9.25;8.00;;;;;;;;;;5082337;28;20762;-79
2023/10/06 03:16:15;;;;;;;8.83;7.60;;;;;;;;;;5082970;28;20384;-79
2023/10/06 03:18:44;;;;;;;8.32;7.50;;;;;;;;;;5082682;28;20375;-78
2023/10/06 03:21:15;;;;;;;8.25;7.10;;;;;;;;;;5079418;28;20379;-79
2023/10/06 03:23:47;;;;;;;8.05;6.95;;;;;;;;;;5080996;28;20372;-79
2023/10/06 03:28:49;;;;;;;6.95;5.50;;;;;;;;;;5082542;28;20387;-79
2023/10/06 03:33:48;;;;;;;8.32;5.65;;;;;;;;;;5082271;28;20841;-78
2023/10/06 03:36:16;;;;;;;6.35;5.40;;;;;;;;;;5082207;28;20475;-78
2023/10/06 03:38:55;;;;;;;7.88;6.07;;;;;;;;;;5081986;28;20822;-79
2023/10/06 03:41:25;;;;;;;8.43;5.47;;;;;;;;;;5082193;28;20388;-79
2023/10/06 03:43:53;;;;;;;7.15;5.20;;;;;;;;;;5082308;28;20407;-79
2023/10/06 03:46:24;;;;;;;6.82;5.07;;;;;;;;;;5081499;28;20553;-79
2023/10/06 03:48:51;;;;;;;8.05;5.45;;;;;;;;;;5083449;28;20383;-79
2023/10/06 03:51:17;;;;;;;7.68;5.32;;;;;;;;;;5063894;28;20384;-79
2023/10/06 03:53:48;;;;;;;8.18;5.70;;;;;;;;;;5081626;28;20392;-78
2023/10/06 03:56:18;;;;;;;7.10;5.30;;;;;;;;;;5081848;28;20380;-79
2023/10/06 03:58:45;;;;;;;7.60;5.47;;;;;;;;;;5080952;28;20872;-79
2023/10/06 04:01:19;;;;;;;7.50;5.10;;;;;;;;;;5080737;28;20394;-78
2023/10/06 04:03:46;;;;;;;7.03;5.30;;;;;;;;;;5079700;28;20387;-78
2023/10/06 04:06:12;;;;;;;7.80;4.75;;;;;;;;;;5080915;28;20441;-78
2023/10/06 04:08:46;;;;;;;7.15;5.00;;;;;;;;;;5070634;28;20398;-79
2023/10/06 04:11:14;;;;;;;7.93;5.43;;;;;;;;;;5079342;28;20375;-78
2023/10/06 04:13:40;;;;;;;8.02;5.38;;;;;;;;;;5080255;28;20756;-78
2023/10/06 04:16:06;;;;;;;7.35;4.88;;;;;;;;;;5080219;28;20837;-78
2023/10/06 04:18:32;;;;;;;8.15;5.47;;;;;;;;;;5078337;28;20387;-79
2023/10/06 04:20:59;;;;;;;6.03;4.82;;;;;;;;;;5078621;28;20376;-79
2023/10/06 04:23:25;;;;;;;6.77;5.47;;;;;;;;;;5081038;28;20388;-79
2023/10/06 04:25:56;;;;;;;5.70;4.78;;;;;;;;;;5079833;28;20388;-79
2023/10/06 04:28:27;;;;;;;6.38;5.10;;;;;;;;;;5080777;28;20380;-79
2023/10/06 04:31:01;;;;;;;6.32;5.05;;;;;;;;;;5080534;28;20379;-79
2023/10/06 04:33:28;;;;;;;6.50;5.10;;;;;;;;;;5078181;28;20384;-79
2023/10/06 04:36:11;;;;;;;6.63;5.45;;;;;;;;;;5077192;28;20403;-78
2023/10/06 04:38:39;;;;;;;6.93;5.13;;;;;;;;;;5077778;28;20388;-79
2023/10/06 04:41:09;;;;;;;7.57;5.57;;;;;;;;;;5080161;28;20383;-78
2023/10/06 04:43:35;;;;;;;7.97;5.50;;;;;;;;;;5060832;28;20404;-79
2023/10/06 04:46:05;;;;;;;6.13;4.95;;;;;;;;;;5078930;28;20509;-78
2023/10/06 04:48:35;;;;;;;5.88;4.90;;;;;;;;;;5062298;28;20399;-79
2023/10/06 04:51:03;;;;;;;6.68;4.97;;;;;;;;;;5079357;28;20388;-77
2023/10/06 04:53:29;;;;;;;7.38;5.10;;;;;;;;;;5075327;28;20383;-77
2023/10/06 04:55:55;;;;;;;6.03;4.88;;;;;;;;;;5077210;28;20395;-79
2023/10/06 04:58:21;;;;;;;6.32;4.88;;;;;;;;;;5076613;28;20388;-78
2023/10/06 05:00:52;;;;;;;6.97;5.07;;;;;;;;;;5075698;28;20391;-79
2023/10/06 05:03:18;;;;;;;6.40;5.35;;;;;;;;;;5073613;28;20384;-79
2023/10/06 05:05:44;;;;;;;7.57;4.97;;;;;;;;;;5081318;28;20397;-78
2023/10/06 05:08:14;;;;;;;7.90;5.30;;;;;;;;;;5079901;28;20753;-78
2023/10/06 05:10:40;;;;;;;6.82;4.80;;;;;;;;;;5078711;28;20376;-78
2023/10/06 05:13:07;;;;;;;9.32;5.70;;;;;;;;;;5080675;28;20396;-78
2023/10/06 05:15:34;;;;;;;8.75;5.10;;;;;;;;;;5080245;28;20410;-78
2023/10/06 05:18:02;;;;;;;7.07;5.00;;;;;;;;;;5079802;28;20898;-78
2023/10/06 05:20:31;;;;;;;8.65;5.20;;;;;;;;;;5077655;28;20380;-78
2023/10/06 05:22:58;;;;;;;7.15;5.00;;;;;;;;;;5077250;28;20411;-78
2023/10/06 05:25:26;;;;;;;7.63;5.13;;;;;;;;;;5078265;28;20380;-78
2023/10/06 05:27:53;;;;;;;7.22;4.80;;;;;;;;;;5079332;28;20411;-78
2023/10/06 05:30:21;;;;;;;10.02;5.45;;;;;;;;;;5078869;28;20391;-78
2023/10/06 05:32:47;;;;;;;6.78;4.93;;;;;;;;;;5079071;28;20379;-78
2023/10/06 05:35:13;;;;;;;6.55;4.85;;;;;;;;;;5080315;28;20449;-78
2023/10/06 05:37:41;;;;;;;6.55;5.00;;;;;;;;;;5080053;28;20423;-78
2023/10/06 05:40:12;;;;;;;7.10;4.90;;;;;;;;;;5080061;28;20386;-78
2023/10/06 05:42:40;;;;;;;8.30;4.80;;;;;;;;;;5079211;28;20437;-78
2023/10/06 05:45:15;;;;;;;7.95;5.50;;;;;;;;;;5082151;28;20382;-78
2023/10/06 05:47:41;;;;;;;7.78;5.38;;;;;;;;;;5082848;28;20931;-78
2023/10/06 05:50:08;;;;;;;8.80;4.88;;;;;;;;;;5081823;28;20384;-78
2023/10/06 05:52:38;;;;;;;6.43;5.03;;;;;;;;;;5081988;28;20402;-78
2023/10/06 05:55:08;;;;;;;8.23;4.90;;;;;;;;;;5083369;28;20386;-78
2023/10/06 05:57:37;;;;;;;8.10;5.57;;;;;;;;;;5084856;28;20384;-79
2023/10/06 06:00:05;;;;;;;9.40;5.80;;;;;;;;;;5085902;28;20372;-78
2023/10/06 06:02:36;;;;;;;8.10;6.00;;;;;;;;;;5085296;28;20407;-78
2023/10/06 06:05:03;;;;;;;7.70;5.47;;;;;;;;;;5084784;28;20383;-78
2023/10/06 06:07:29;;;;;;;6.57;5.15;;;;;;;;;;5085182;28;20415;-79
2023/10/06 06:09:55;;;;;;;7.70;5.20;;;;;;;;;;5081089;28;20407;-78
2023/10/06 06:12:21;;;;;;;6.50;5.40;;;;;;;;;;5085845;28;20391;-78
2023/10/06 06:14:47;;;;;;;8.93;5.28;;;;;;;;;;5080589;28;20375;-78
2023/10/06 06:17:13;;;;;;;6.93;4.93;;;;;;;;;;5084830;28;20383;-78
2023/10/06 06:19:39;;;;;;;7.65;4.57;;;;;;;;;;5084311;28;20376;-78
2023/10/06 06:22:05;;;;;;;9.48;5.60;;;;;;;;;;5084062;28;20425;-78
2023/10/06 06:24:32;;;;;;;8.48;5.70;;;;;;;;;;5083636;28;20380;-78
2023/10/06 06:27:00;;;;;;;8.23;5.13;;;;;;;;;;5081504;28;20431;-78
2023/10/06 06:29:26;;;;;;;7.28;5.55;;;;;;;;;;5084055;28;20853;-78
2023/10/06 06:31:52;;;;;;;7.43;5.47;;;;;;;;;;5084178;28;20392;-78
2023/10/06 06:34:18;;;;;;;9.40;5.10;;;;;;;;;;5083565;28;20383;-78
2023/10/06 06:36:45;;;;;;;6.68;5.13;;;;;;;;;;5084636;28;20789;-78
2023/10/06 06:39:11;;;;;;;8.88;5.43;;;;;;;;;;5085235;28;20777;-78
2023/10/06 06:41:37;;;;;;;9.70;6.35;;;;;;;;;;5085246;28;20876;-78
2023/10/06 06:44:03;;;;;;;7.65;5.82;;;;;;;;;;5080233;28;20729;-79
2023/10/06 06:46:30;;;;;;;7.15;5.35;;;;;;;;;;5077646;28;20419;-78
2023/10/06 06:48:56;;;;;;;7.87;5.73;;;;;;;;;;5076740;28;20461;-78
2023/10/06 06:51:30;;;;;;;7.28;5.57;;;;;;;;;;5080891;28;20376;-78
2023/10/06 06:53:56;;;;;;;7.53;5.57;;;;;;;;;;5077658;28;20829;-78
2023/10/06 06:56:24;;;;;;;7.60;5.67;;;;;;;;;;5077398;28;20387;-78
2023/10/06 06:58:51;;;;;;;7.75;5.75;;;;;;;;;;5077873;28;20391;-78
2023/10/06 07:01:20;;;;;;;8.60;5.67;;;;;;;;;;5077996;28;20398;-78
2023/10/06 07:03:46;;;;;;;8.40;6.00;;;;;;;;;;5078852;28;20493;-78
2023/10/06 07:06:14;;;;;;;8.98;5.60;;;;;;;;;;5077846;28;20395;-78
2023/10/06 07:08:43;;;;;;;8.68;5.57;;;;;;;;;;5078911;28;20387;-79
2023/10/06 07:11:10;;;;;;;8.82;5.57;;;;;;;;;;5079158;28;20380;-78
2023/10/06 07:13:36;;;;;;;7.10;5.40;;;;;;;;;;5078968;28;20391;-79
2023/10/06 07:16:05;;;;;;;8.75;5.65;;;;;;;;;;5079640;28;20418;-78
2023/10/06 07:18:31;;;;;;;10.07;6.72;;;;;;;;;;5079354;28;20422;-78
2023/10/06 07:20:57;;;;;;;7.55;6.20;;;;;;;;;;5079093;28;20448;-78
2023/10/06 07:23:23;;;;;;;8.90;6.35;;;;;;;;;;5079051;28;20437;-79
2023/10/06 07:25:49;;;;;;;8.85;6.53;;;;;;;;;;5079234;28;20383;-79
2023/10/06 07:28:15;;;;;;;8.57;7.03;;;;;;;;;;5079991;28;20453;-79
2023/10/06 07:30:45;;;;;;;10.10;8.05;;;;;;;;;;5081262;28;20463;-78
2023/10/06 07:33:11;;;;;;;10.07;8.05;;;;;;;;;;5080193;28;20730;-79
2023/10/06 07:35:41;;;;;;;10.30;7.70;;;;;;;;;;5079789;28;20422;-78
2023/10/06 07:38:10;;;;;;;10.90;7.13;;;;;;;;;;5080272;28;20737;-80
2023/10/06 07:40:36;;;;;;;9.40;7.18;;;;;;;;;;5079864;28;21100;-78
2023/10/06 07:43:05;;;;;;;11.60;7.70;;;;;;;;;;5080113;28;20384;-79
2023/10/06 07:45:32;;;;;;;9.20;7.38;;;;;;;;;;5080315;28;20379;-79
2023/10/06 07:47:58;;;;;;;9.15;6.97;;;;;;;;;;5079686;28;21051;-79
2023/10/06 07:50:28;;;;;;;11.35;7.72;;;;;;;;;;5079634;28;20418;-79
2023/10/06 07:52:55;;;;;;;9.13;7.47;;;;;;;;;;5079933;28;20384;-79
2023/10/06 07:55:23;;;;;;;11.40;7.80;;;;;;;;;;5078223;28;20528;-79
2023/10/06 07:57:49;;;;;;;10.73;7.85;;;;;;;;;;5080124;28;20805;-79
2023/10/06 08:00:27;;;;;;;12.77;8.80;;;;;;;;;;5077821;28;20400;-79
2023/10/06 08:02:53;;;;;;;10.23;8.30;;;;;;;;;;5079903;28;20375;-78
2023/10/06 08:05:20;;;;;;;11.48;7.63;;;;;;;;;;5080067;28;20427;-78
2023/10/06 08:07:46;;;;;;;10.40;7.53;;;;;;;;;;5078725;28;20455;-79
2023/10/06 08:10:15;;;;;;;11.98;8.25;;;;;;;;;;5079447;28;20854;-79
2023/10/06 08:12:43;;;;;;;13.40;8.60;;;;;;;;;;5078698;28;20917;-80
2023/10/06 08:15:09;;;;;;;11.00;8.23;;;;;;;;;;5079553;28;20880;-80
2023/10/06 08:17:36;;;;;;;13.35;8.77;;;;;;;;;;5077783;28;20398;-79
2023/10/06 08:20:02;;;;;;;16.50;9.98;;;;;;;;;;5079758;28;20845;-78
2023/10/06 08:22:33;;;;;;;13.65;9.52;;;;;;;;;;5079126;28;20395;-78
2023/10/06 08:25:09;;;;;;;13.47;8.97;;;;;;;;;;5079725;28;20445;-79
2023/10/06 08:27:39;;;;;;;11.10;8.50;;;;;;;;;;5076108;28;20411;-78
2023/10/06 08:30:09;;;;;;;12.50;8.23;;;;;;;;;;5075735;28;20383;-78
2023/10/06 08:32:38;;;;;;;15.55;9.73;;;;;;;;;;5073762;28;20372;-78
2023/10/06 08:35:12;;;;;;;14.05;9.20;;;;;;;;;;5066289;28;20390;-78
2023/10/06 08:37:38;;;;;;;14.00;9.45;;;;;;;;;;5076192;28;20431;-80
2023/10/06 08:40:07;;;;;;;19.20;9.60;;;;;;;;;;5076139;28;20390;-78
2023/10/06 08:42:34;;;;;;;12.95;9.70;;;;;;;;;;5076484;28;20381;-80
2023/10/06 08:45:01;;;;;;;14.43;9.85;;;;;;;;;;5076035;28;20407;-78
2023/10/06 08:47:30;;;;;;;14.35;9.70;;;;;;;;;;5076183;28;20889;-79
2023/10/06 08:49:56;;;;;;;14.35;10.23;;;;;;;;;;5057376;28;20388;-80
2023/10/06 08:52:22;;;;;;;13.88;10.75;;;;;;;;;;5075082;28;20380;-80
2023/10/06 08:54:48;;;;;;;17.08;11.05;;;;;;;;;;5076915;28;20801;-80
2023/10/06 08:57:15;;;;;;;19.05;11.32;;;;;;;;;;5076273;28;20416;-79
2023/10/06 08:59:42;;;;;;;18.17;11.60;;;;;;;;;;5073680;28;20395;-80
2023/10/06 09:02:09;;;;;;;20.15;11.35;;;;;;;;;;5069927;28;20391;-82
2023/10/06 09:04:36;;;;;;;17.55;11.77;;;;;;;;;;5079332;28;20384;-83
2023/10/06 09:07:17;;;;;;;20.50;11.65;;;;;;;;;;5080793;28;20415;-83
2023/10/06 09:09:43;;;;;;;15.25;11.25;;;;;;;;;;5082348;28;20813;-83
2023/10/06 09:12:10;;;;;;;18.83;12.47;;;;;;;;;;5061826;28;20784;-83
2023/10/06 09:14:54;;;;;;;17.73;11.77;;;;;;;;;;5080454;28;20383;-83
2023/10/06 09:17:30;;;;;;;18.90;12.18;;;;;;;;;;5079066;28;20376;-82
2023/10/06 09:19:56;;;;;;;18.45;12.60;;;;;;;;;;5078262;28;20443;-82
2023/10/06 09:22:28;;;;;;;19.55;13.75;;;;;;;;;;5079455;28;20400;-83
2023/10/06 09:24:59;;;;;;;19.05;12.90;;;;;;;;;;5079618;28;20384;-81
2023/10/06 09:27:26;;;;;;;21.52;12.50;;;;;;;;;;5076281;28;21885;-82
2023/10/06 09:29:59;;;;;;;15.02;12.65;;;;;;;;;;5078434;28;20384;-83
2023/10/06 09:32:25;;;;;;;19.88;13.63;;;;;;;;;;5079489;28;20375;-84
2023/10/06 09:34:53;;;;;;;21.33;14.80;;;;;;;;;;5082267;28;20390;-83
2023/10/06 09:37:20;;;;;;;25.95;16.48;;;;;;;;;;5082268;28;20493;-83
2023/10/06 09:39:55;;;;;;;26.40;17.05;;;;;;;;;;5082527;28;20388;-82
2023/10/06 09:42:22;;;;;;;27.23;16.38;;;;;;;;;;5082012;28;20462;-81
2023/10/06 09:44:51;;;;;;;24.80;16.55;;;;;;;;;;5081382;28;20384;-82
2023/10/06 09:47:18;;;;;;;26.10;17.85;;;;;;;;;;5081157;28;21018;-82
2023/10/06 09:49:47;;;;;;;27.60;17.77;;;;;;;;;;5079796;28;20376;-83
2023/10/06 09:52:13;;;;;;;28.83;17.00;;;;;;;;;;5062615;28;20403;-83
2023/10/06 09:54:40;;;;;;;33.33;18.52;;;;;;;;;;5079327;28;20862;-82
2023/10/06 09:57:07;;;;;;;30.10;19.02;;;;;;;;;;5081495;28;20800;-82
2023/10/06 09:59:33;;;;;;;25.05;16.17;;;;;;;;;;5079821;28;20422;-83
2023/10/06 10:01:59;;;;;;;28.45;17.42;;;;;;;;;;5082252;28;20475;-83
2023/10/06 10:04:29;;;;;;;20.87;13.60;;;;;;;;;;5082171;28;20441;-83
2023/10/06 10:06:55;;;;;;;14.23;10.98;;;;;;;;;;5079626;28;20761;-82
2023/10/06 10:09:22;;;;;;;18.77;12.60;;;;;;;;;;5080538;28;20379;-82
2023/10/06 10:11:57;;;;;;;15.30;11.50;;;;;;;;;;5080459;28;20457;-83
2023/10/06 10:14:29;;;;;;;14.68;11.40;;;;;;;;;;5081276;28;20380;-83
2023/10/06 10:17:13;;;;;;;17.52;10.77;;;;;;;;;;5080815;28;20415;-83
2023/10/06 10:19:40;;;;;;;15.65;11.27;;;;;;;;;;5081353;28;20387;-82
2023/10/06 10:22:06;;;;;;;13.93;10.82;;;;;;;;;;5081209;28;20462;-81
2023/10/06 10:24:34;;;;;;;15.10;10.88;;;;;;;;;;5077958;28;20386;-81
2023/10/06 10:27:00;;;;;;;13.43;10.55;;;;;;;;;;5079834;28;20423;-82
2023/10/06 10:29:28;;;;;;;14.00;9.35;;;;;;;;;;5080021;28;20392;-82
2023/10/06 10:32:01;;;;;;;10.00;8.05;;;;;;;;;;5080140;28;20384;-82
2023/10/06 10:34:33;;;;;;;11.93;9.15;;;;;;;;;;5081452;28;20384;-82
2023/10/06 10:37:12;;;;;;;16.50;10.88;;;;;;;;;;5075058;28;20786;-82
2023/10/06 10:39:44;;;;;;;20.55;13.20;;;;;;;;;;5079375;28;20834;-82
2023/10/06 10:42:10;;;;;;;17.65;12.15;;;;;;;;;;5084240;28;20386;-83
2023/10/06 10:44:37;;;;;;;16.73;11.27;;;;;;;;;;5083882;28;20435;-81
2023/10/06 10:47:06;;;;;;;12.75;9.45;;;;;;;;;;5084960;28;20414;-81
2023/10/06 10:49:32;;;;;;;12.77;9.13;;;;;;;;;;5083778;28;20434;-83
2023/10/06 10:52:09;;;;;;;9.57;8.57;;;;;;;;;;5084201;28;20382;-82
2023/10/06 10:54:39;;;;;;;9.60;8.13;;;;;;;;;;5065277;28;20423;-83
2023/10/06 10:57:14;;;;;;;10.45;8.73;;;;;;;;;;5083247;28;20391;-83
2023/10/06 10:59:58;;;;;;;8.98;7.95;;;;;;;;;;5083074;28;20409;-82
2023/10/06 11:02:24;;;;;;;9.30;8.10;;;;;;;;;;5070863;28;20407;-83
2023/10/06 11:04:50;;;;;;;12.95;8.65;;;;;;;;;;5066648;28;20388;-83
2023/10/06 11:07:18;;;;;;;11.18;9.20;;;;;;;;;;5082915;28;20414;-83
2023/10/06 11:09:52;;;;;;;11.47;8.67;;;;;;;;;;5081503;28;20785;-83
2023/10/06 11:12:23;;;;;;;11.95;8.73;;;;;;;;;;5083479;28;20857;-82
2023/10/06 11:14:50;;;;;;;9.57;8.38;;;;;;;;;;5084213;28;20434;-83
2023/10/06 11:17:19;;;;;;;10.63;8.68;;;;;;;;;;5083806;28;20745;-82
2023/10/06 11:19:45;;;;;;;12.52;8.20;;;;;;;;;;5084292;28;20430;-82
2023/10/06 11:22:13;;;;;;;14.43;10.05;;;;;;;;;;5081526;28;20395;-82
2023/10/06 11:24:39;;;;;;;11.25;9.27;;;;;;;;;;5081630;28;20441;-83
2023/10/06 11:27:16;;;;;;;13.88;10.35;;;;;;;;;;5081197;28;20412;-83
2023/10/06 11:29:43;;;;;;;16.60;10.95;;;;;;;;;;5082074;28;20391;-84
2023/10/06 11:32:09;;;;;;;12.80;10.43;;;;;;;;;;5082146;28;20822;-83
2023/10/06 11:34:35;;;;;;;14.85;11.40;;;;;;;;;;5080499;28;20455;-83
2023/10/06 11:37:02;;;;;;;9.73;8.32;;;;;;;;;;5081156;28;20411;-84
2023/10/06 11:39:31;;;;;;;8.50;7.32;;;;;;;;;;5081811;28;20463;-84
2023/10/06 11:42:16;;;;;;;11.27;7.72;;;;;;;;;;5081178;28;20387;-82
2023/10/06 11:44:42;;;;;;;10.23;7.72;;;;;;;;;;5081097;28;20706;-83
2023/10/06 11:47:11;;;;;;;9.05;8.13;;;;;;;;;;5082932;28;20426;-82
2023/10/06 11:49:53;;;;;;;10.90;8.38;;;;;;;;;;5084326;28;20463;-83
2023/10/06 11:52:19;;;;;;;13.00;8.65;;;;;;;;;;5083949;28;20376;-84
2023/10/06 11:54:46;;;;;;;12.90;9.45;;;;;;;;;;5082270;28;20380;-82
2023/10/06 11:57:13;;;;;;;8.93;7.22;;;;;;;;;;5083390;28;20379;-82
2023/10/06 11:59:48;;;;;;;8.70;7.75;;;;;;;;;;5083910;28;20861;-84
2023/10/06 12:02:15;;;;;;;8.73;6.95;;;;;;;;;;5084715;28;20390;-83
2023/10/06 12:04:41;;;;;;;8.63;7.03;;;;;;;;;;5066864;28;20396;-82
2023/10/06 12:07:09;;;;;;;8.32;7.45;;;;;;;;;;5066406;28;20829;-82
2023/10/06 12:09:35;;;;;;;8.32;6.90;;;;;;;;;;5083595;28;20384;-83
2023/10/06 12:12:02;;;;;;;8.53;6.43;;;;;;;;;;5081650;28;20375;-83
2023/10/06 12:14:28;;;;;;;8.27;7.40;;;;;;;;;;5081951;28;20776;-82
2023/10/06 12:16:54;;;;;;;13.27;9.45;;;;;;;;;;5085126;28;20382;-83
2023/10/06 12:19:21;;;;;;;11.40;8.43;;;;;;;;;;5082530;28;20455;-84
2023/10/06 12:21:48;;;;;;;9.10;7.35;;;;;;;;;;5081891;28;20384;-81
2023/10/06 12:24:14;;;;;;;11.85;8.18;;;;;;;;;;5081940;28;20470;-82
2023/10/06 12:26:40;;;;;;;8.07;7.20;;;;;;;;;;5081376;28;20451;-83
2023/10/06 12:29:06;;;;;;;8.73;7.45;;;;;;;;;;5082884;28;20391;-82
2023/10/06 12:31:32;;;;;;;9.63;7.30;;;;;;;;;;5083636;28;20846;-83
2023/10/06 12:34:03;;;;;;;11.33;7.67;;;;;;;;;;5082046;28;20445;-83
2023/10/06 12:36:29;;;;;;;6.87;5.93;;;;;;;;;;5084966;28;20390;-83
2023/10/06 12:38:55;;;;;;;8.30;6.45;;;;;;;;;;5086112;28;20394;-83
2023/10/06 12:41:22;;;;;;;9.32;6.38;;;;;;;;;;5086886;28;20441;-83
2023/10/06 12:43:48;;;;;;;9.90;7.05;;;;;;;;;;5086487;28;20398;-83
2023/10/06 12:46:14;;;;;;;7.82;6.30;;;;;;;;;;5086715;28;20391;-83
2023/10/06 12:48:46;;;;;;;8.03;6.23;;;;;;;;;;5085629;28;20472;-83
2023/10/06 12:51:14;;;;;;;10.80;7.32;;;;;;;;;;5085526;28;20407;-83
2023/10/06 12:53:40;;;;;;;9.52;7.15;;;;;;;;;;5085332;28;20379;-83
2023/10/06 12:56:07;;;;;;;13.27;7.93;;;;;;;;;;5086444;28;20380;-83
2023/10/06 12:58:33;;;;;;;11.43;7.32;;;;;;;;;;5085890;28;20372;-83
2023/10/06 13:00:59;;;;;;;6.65;4.90;;;;;;;;;;5085782;28;20379;-83
2023/10/06 13:03:25;;;;;;;7.53;4.63;;;;;;;;;;5084283;28;20368;-83
2023/10/06 13:05:51;;;;;;;4.63;4.20;;;;;;;;;;5084849;28;20384;-83
2023/10/06 13:08:20;;;;;;;5.30;4.47;;;;;;;;;;5085798;28;20837;-83
2023/10/06 13:10:47;;;;;;;5.72;4.57;;;;;;;;;;5085499;28;20948;-83
2023/10/06 13:13:16;;;;;;;6.53;4.90;;;;;;;;;;5085999;28;20395;-83
2023/10/06 13:15:42;;;;;;;6.90;5.75;;;;;;;;;;5085043;28;20403;-83
2023/10/06 13:18:08;;;;;;;6.78;5.32;;;;;;;;;;5085637;28;20789;-85
2023/10/06 13:20:35;;;;;;;7.40;5.00;;;;;;;;;;5085536;28;20380;-83
2023/10/06 13:23:04;;;;;;;7.18;4.70;;;;;;;;;;5084971;28;20402;-83
2023/10/06 13:25:31;;;;;;;7.50;5.50;;;;;;;;;;5064350;28;20776;-83
2023/10/06 13:27:57;;;;;;;7.40;5.13;;;;;;;;;;5083250;28;20468;-83
2023/10/06 13:30:24;;;;;;;5.70;4.60;;;;;;;;;;5083872;28;20391;-83
2023/10/06 13:32:57;;;;;;;5.75;4.50;;;;;;;;;;5084105;28;20379;-83
2023/10/06 13:35:24;;;;;;;5.90;4.73;;;;;;;;;;5083380;28;20896;-83
2023/10/06 13:37:50;;;;;;;6.57;4.70;;;;;;;;;;5082290;28;20375;-83
2023/10/06 13:40:17;;;;;;;4.70;4.20;;;;;;;;;;5083134;28;20395;-83
2023/10/06 13:42:47;;;;;;;4.93;4.43;;;;;;;;;;5083271;28;20475;-83
2023/10/06 13:45:23;;;;;;;5.43;4.93;;;;;;;;;;5083602;28;20422;-82
2023/10/06 13:47:49;;;;;;;5.40;4.20;;;;;;;;;;5081029;28;20411;-83
2023/10/06 13:50:18;;;;;;;4.50;3.78;;;;;;;;;;5083359;28;20394;-83
2023/10/06 13:52:45;;;;;;;4.10;3.70;;;;;;;;;;5084344;28;20411;-83
2023/10/06 13:55:12;;;;;;;5.57;4.13;;;;;;;;;;5065041;28;20391;-83
2023/10/06 13:57:39;;;;;;;5.68;3.60;;;;;;;;;;5083444;28;20833;-83
2023/10/06 14:00:09;;;;;;;4.30;3.47;;;;;;;;;;5084562;28;20394;-83
2023/10/06 14:02:36;;;;;;;4.07;3.37;;;;;;;;;;5083011;28;20368;-83
2023/10/06 14:05:02;;;;;;;4.07;3.67;;;;;;;;;;5082126;28;20473;-83
2023/10/06 14:07:28;;;;;;;3.88;3.35;;;;;;;;;;5083270;28;20411;-83
2023/10/06 14:09:54;;;;;;;4.37;3.80;;;;;;;;;;5084300;28;20387;-82
2023/10/06 14:12:22;;;;;;;4.40;3.80;;;;;;;;;;5084189;28;20372;-83
2023/10/06 14:17:20;;;;;;;7.03;3.97;;;;;;;;;;5087835;28;20399;-83
2023/10/06 14:19:52;;;;;;;3.40;3.10;;;;;;;;;;5088010;28;20387;-83
2023/10/06 14:22:21;;;;;;;3.75;3.38;;;;;;;;;;5085308;28;20410;-83
2023/10/06 14:24:48;;;;;;;4.55;3.28;;;;;;;;;;5087839;28;20883;-83
2023/10/06 14:27:18;;;;;;;5.45;3.13;;;;;;;;;;5087975;28;20443;-83
2023/10/06 14:29:44;;;;;;;4.63;3.47;;;;;;;;;;5087517;28;20414;-83
2023/10/06 14:32:38;;;;;;;4.95;3.92;;;;;;;;;;5086920;28;20411;-83
2023/10/06 14:38:14;;;;;;;5.60;3.75;;;;;;;;;;5088162;28;20428;-83
2023/10/06 14:46:07;;;;;;;5.30;3.80;;;;;;;;;;5069422;28;20457;-81
2023/10/06 14:48:33;;;;;;;5.22;4.38;;;;;;;;;;5072450;28;20425;-81
2023/10/06 14:51:00;;;;;;;4.10;3.70;;;;;;;;;;5073722;28;20395;-82
2023/10/06 14:53:28;;;;;;;4.25;3.78;;;;;;;;;;5077064;28;20386;-81
2023/10/06 14:55:54;;;;;;;4.80;3.90;;;;;;;;;;5077801;28;20896;-81
2023/10/06 14:58:20;;;;;;;5.03;3.70;;;;;;;;;;5078133;28;20379;-81
2023/10/06 15:00:47;;;;;;;6.00;5.33;;;;;;;;;;5078335;28;20411;-81
2023/10/06 15:03:19;;;;;;;5.68;4.93;;;;;;;;;;5077842;28;20439;-81
2023/10/06 15:05:46;;;;;;;5.10;4.60;;;;;;;;;;5077173;28;20843;-81
2023/10/06 15:08:12;;;;;;;5.95;4.10;;;;;;;;;;5078009;28;20407;-81